createdAt,value
2022-08-04T00:00:32.177Z,1007.921786032
2022-08-04T00:01:32.051Z,1008.1249687599999
2022-08-04T00:02:31.964Z,1008.1249687599999
2022-08-04T00:03:31.997Z,1007.921786032
2022-08-04T00:04:32.061Z,1007.8201946679999
2022-08-04T00:05:32.028Z,1007.921786032
2022-08-04T00:06:32.017Z,1007.8201946679999
2022-08-04T00:07:42.709Z,1008.023377396
2022-08-04T00:08:31.962Z,1008.226560124
2022-08-04T00:09:31.991Z,1007.921786032
2022-08-04T00:10:32.010Z,1008.1249687599999
2022-08-04T00:11:31.973Z,1008.328151488
2022-08-04T00:12:34.470Z,1008.023377396
2022-08-04T00:13:32.050Z,1008.023377396
2022-08-04T00:14:31.989Z,1007.921786032
2022-08-04T00:15:32.020Z,1007.921786032
2022-08-04T00:16:32.852Z,1007.718603304
2022-08-04T00:17:32.068Z,1007.8201946679999
2022-08-04T00:18:31.969Z,1008.023377396
2022-08-04T00:19:32.022Z,1007.921786032
2022-08-04T00:20:32.095Z,1007.921786032
2022-08-04T00:21:31.986Z,1007.8201946679999
2022-08-04T00:22:31.999Z,1007.8201946679999
2022-08-04T00:24:11.654Z,1008.023377396
2022-08-04T00:24:32.032Z,1008.023377396
2022-08-04T00:25:32.001Z,1008.023377396
2022-08-04T00:26:31.997Z,1008.023377396
2022-08-04T00:27:32.013Z,1008.023377396
2022-08-04T00:28:32.005Z,1008.1249687599999
2022-08-04T00:29:31.990Z,1008.1249687599999
2022-08-04T00:30:31.994Z,1007.921786032
2022-08-04T00:31:33.286Z,1007.921786032
2022-08-04T00:32:34.432Z,1008.023377396
2022-08-04T00:33:31.968Z,1008.023377396
2022-08-04T00:34:32.002Z,1008.226560124
2022-08-04T00:35:32.007Z,1008.023377396
2022-08-04T00:36:31.993Z,1008.226560124
2022-08-04T00:37:31.949Z,1008.023377396
2022-08-04T00:38:31.975Z,1007.921786032
2022-08-04T00:39:32.241Z,1008.023377396
2022-08-04T00:40:31.994Z,1008.023377396
2022-08-04T00:41:31.983Z,1008.023377396
2022-08-04T00:42:32.010Z,1007.921786032
2022-08-04T00:43:33.098Z,1008.023377396
2022-08-04T00:44:31.969Z,1008.226560124
2022-08-04T00:46:00.663Z,1007.921786032
2022-08-04T00:46:32.052Z,1008.1249687599999
2022-08-04T00:47:31.978Z,1007.921786032
2022-08-04T00:48:31.972Z,1008.023377396
2022-08-04T00:49:31.968Z,1008.023377396
2022-08-04T00:50:31.968Z,1008.1249687599999
2022-08-04T00:51:32.032Z,1008.023377396
2022-08-04T00:52:33.771Z,1008.226560124
2022-08-04T00:53:31.956Z,1007.921786032
2022-08-04T00:54:32.028Z,1007.921786032
2022-08-04T00:55:31.988Z,1008.023377396
2022-08-04T00:56:31.986Z,1007.921786032
2022-08-04T00:57:33.891Z,1007.921786032
2022-08-04T00:58:32.011Z,1008.023377396
2022-08-04T00:59:31.983Z,1008.226560124
2022-08-04T01:00:31.979Z,1008.023377396
2022-08-04T01:01:32.065Z,1008.023377396
2022-08-04T01:02:31.986Z,1008.1249687599999
2022-08-04T01:03:32.919Z,1008.023377396
2022-08-04T01:04:31.980Z,1008.023377396
2022-08-04T01:05:37.970Z,1008.023377396
2022-08-04T01:06:32.033Z,1008.023377396
2022-08-04T01:07:32.007Z,1008.023377396
2022-08-04T01:08:31.985Z,1008.023377396
2022-08-04T01:09:31.953Z,1008.1249687599999
2022-08-04T01:10:31.985Z,1007.921786032
2022-08-04T01:11:31.987Z,1007.921786032
2022-08-04T01:12:32.004Z,1008.226560124
2022-08-04T01:13:31.978Z,1007.921786032
2022-08-04T01:14:32.007Z,1008.023377396
2022-08-04T01:15:31.987Z,1007.8201946679999
2022-08-04T01:16:32.026Z,1008.023377396
2022-08-04T01:17:31.961Z,1008.023377396
2022-08-04T01:18:32.222Z,1007.921786032
2022-08-04T01:19:32.009Z,1008.023377396
2022-08-04T01:20:31.997Z,1007.921786032
2022-08-04T01:21:31.965Z,1007.8201946679999
2022-08-04T01:22:32.063Z,1007.718603304
2022-08-04T01:23:31.983Z,1007.718603304
2022-08-04T01:24:32.766Z,1007.921786032
2022-08-04T01:25:33.226Z,1008.023377396
2022-08-04T01:26:44.110Z,1007.921786032
2022-08-04T01:27:32.048Z,1008.1249687599999
2022-08-04T01:28:32.426Z,1008.1249687599999
2022-08-04T01:29:39.534Z,1008.1249687599999
2022-08-04T01:30:32.308Z,1008.1249687599999
2022-08-04T01:31:32.029Z,1008.1249687599999
2022-08-04T01:32:32.169Z,1008.023377396
2022-08-04T01:33:31.973Z,1008.226560124
2022-08-04T01:34:32.067Z,1008.023377396
2022-08-04T01:35:46.607Z,1007.921786032
2022-08-04T01:36:32.085Z,1008.023377396
2022-08-04T01:37:32.734Z,1007.921786032
2022-08-04T01:38:32.093Z,1008.1249687599999
2022-08-04T01:39:32.032Z,1008.1249687599999
2022-08-04T01:40:32.223Z,1008.226560124
2022-08-04T01:41:33.089Z,1008.226560124
2022-08-04T01:42:32.583Z,1008.023377396
2022-08-04T01:43:32.556Z,1008.1249687599999
2022-08-04T01:44:32.087Z,1008.1249687599999
2022-08-04T01:45:32.220Z,1008.023377396
2022-08-04T01:46:32.109Z,1008.023377396
2022-08-04T01:47:32.163Z,1008.023377396
2022-08-04T01:48:32.843Z,1008.1249687599999
2022-08-04T01:49:39.945Z,1008.023377396
2022-08-04T01:50:32.053Z,1008.1249687599999
2022-08-04T01:51:32.064Z,1007.8201946679999
2022-08-04T01:52:32.997Z,1008.1249687599999
2022-08-04T01:53:32.059Z,1008.023377396
2022-08-04T01:54:31.965Z,1008.023377396
2022-08-04T01:55:52.046Z,1008.1249687599999
2022-08-04T01:56:32.081Z,1008.1249687599999
2022-08-04T01:57:38.004Z,1008.023377396
2022-08-04T01:58:31.962Z,1008.1249687599999
2022-08-04T01:59:31.976Z,1008.1249687599999
2022-08-04T02:00:31.962Z,1008.023377396
2022-08-04T02:01:32.197Z,1008.023377396
2022-08-04T02:02:32.163Z,1008.023377396
2022-08-04T02:04:21.833Z,1008.1249687599999
2022-08-04T02:04:32.065Z,1008.1249687599999
2022-08-04T02:06:03.113Z,1008.023377396
2022-08-04T02:06:32.011Z,1008.1249687599999
2022-08-04T02:07:31.997Z,1008.1249687599999
2022-08-04T02:08:31.971Z,1007.8201946679999
2022-08-04T02:09:31.967Z,1008.1249687599999
2022-08-04T02:10:31.972Z,1007.921786032
2022-08-04T02:11:31.981Z,1008.023377396
2022-08-04T02:12:31.945Z,1008.023377396
2022-08-04T02:13:31.971Z,1007.8201946679999
2022-08-04T02:14:31.925Z,1008.023377396
2022-08-04T02:15:31.984Z,1007.8201946679999
2022-08-04T02:16:31.975Z,1007.718603304
2022-08-04T02:17:31.979Z,1008.023377396
2022-08-04T02:18:31.952Z,1007.921786032
2022-08-04T02:19:31.989Z,1007.921786032
2022-08-04T02:20:31.965Z,1008.1249687599999
2022-08-04T02:21:42.061Z,1007.921786032
2022-08-04T02:22:31.964Z,1007.921786032
2022-08-04T02:23:31.991Z,1008.1249687599999
2022-08-04T02:24:32.017Z,1007.8201946679999
2022-08-04T02:25:31.982Z,1007.921786032
2022-08-04T02:26:32.032Z,1007.921786032
2022-08-04T02:27:59.765Z,1007.8201946679999
2022-08-04T02:28:32.045Z,1007.718603304
2022-08-04T02:29:32.290Z,1007.718603304
2022-08-04T02:30:31.965Z,1007.921786032
2022-08-04T02:31:31.978Z,1007.921786032
2022-08-04T02:32:31.955Z,1008.023377396
2022-08-04T02:33:31.980Z,1007.8201946679999
2022-08-04T02:34:32.042Z,1008.023377396
2022-08-04T02:35:31.990Z,1007.921786032
2022-08-04T02:36:32.000Z,1008.023377396
2022-08-04T02:37:31.948Z,1008.023377396
2022-08-04T02:38:31.988Z,1008.023377396
2022-08-04T02:39:32.041Z,1007.8201946679999
2022-08-04T02:40:32.041Z,1008.1249687599999
2022-08-04T02:41:31.966Z,1008.226560124
2022-08-04T02:42:31.980Z,1008.1249687599999
2022-08-04T02:43:50.284Z,1008.023377396
2022-08-04T02:44:32.019Z,1007.921786032
2022-08-04T02:45:31.958Z,1008.328151488
2022-08-04T02:46:31.977Z,1008.226560124
2022-08-04T02:48:30.481Z,1008.023377396
2022-08-04T02:48:32.157Z,1008.226560124
2022-08-04T02:49:33.577Z,1008.023377396
2022-08-04T02:50:31.966Z,1007.921786032
2022-08-04T02:51:31.953Z,1008.023377396
2022-08-04T02:52:31.971Z,1008.023377396
2022-08-04T02:53:32.008Z,1008.226560124
2022-08-04T02:54:33.661Z,1008.328151488
2022-08-04T02:55:31.986Z,1007.921786032
2022-08-04T02:56:31.970Z,1008.023377396
2022-08-04T02:57:31.966Z,1008.1249687599999
2022-08-04T02:58:31.958Z,1008.1249687599999
2022-08-04T02:59:31.978Z,1008.1249687599999
2022-08-04T03:00:31.983Z,1008.226560124
2022-08-04T03:01:32.130Z,1008.023377396
2022-08-04T03:02:31.991Z,1008.023377396
2022-08-04T03:03:31.970Z,1008.328151488
2022-08-04T03:04:32.082Z,1008.226560124
2022-08-04T03:05:32.056Z,1008.023377396
2022-08-04T03:06:32.036Z,1008.226560124
2022-08-04T03:07:32.022Z,1008.226560124
2022-08-04T03:08:31.953Z,1008.023377396
2022-08-04T03:09:35.025Z,1008.1249687599999
2022-08-04T03:10:31.958Z,1008.1249687599999
2022-08-04T03:11:31.989Z,1008.226560124
2022-08-04T03:12:32.133Z,1007.921786032
2022-08-04T03:13:32.068Z,1008.1249687599999
2022-08-04T03:14:32.220Z,1008.226560124
2022-08-04T03:15:32.089Z,1008.328151488
2022-08-04T03:16:35.497Z,1008.1249687599999
2022-08-04T03:17:32.060Z,1008.1249687599999
2022-08-04T03:18:32.165Z,1008.023377396
2022-08-04T03:19:32.103Z,1008.226560124
2022-08-04T03:20:32.103Z,1008.226560124
2022-08-04T03:21:32.090Z,1008.226560124
2022-08-04T03:22:32.033Z,1008.1249687599999
2022-08-04T03:23:32.140Z,1008.1249687599999
2022-08-04T03:24:32.543Z,1008.429742852
2022-08-04T03:25:32.177Z,1008.023377396
2022-08-04T03:26:33.150Z,1008.1249687599999
2022-08-04T03:27:31.969Z,1008.1249687599999
2022-08-04T03:28:31.962Z,1008.023377396
2022-08-04T03:29:36.905Z,1008.226560124
2022-08-04T03:30:31.947Z,1008.1249687599999
2022-08-04T03:31:31.958Z,1008.1249687599999
2022-08-04T03:32:32.009Z,1008.1249687599999
2022-08-04T03:33:31.976Z,1008.226560124
2022-08-04T03:34:31.976Z,1008.023377396
2022-08-04T03:35:32.004Z,1008.226560124
2022-08-04T03:36:32.105Z,1008.226560124
2022-08-04T03:37:32.035Z,1008.1249687599999
2022-08-04T03:38:31.967Z,1008.226560124
2022-08-04T03:39:32.017Z,1008.1249687599999
2022-08-04T03:40:31.945Z,1008.226560124
2022-08-04T03:41:51.959Z,1008.1249687599999
2022-08-04T03:42:32.194Z,1008.531334216
2022-08-04T03:43:57.180Z,1008.429742852
2022-08-04T03:44:32.034Z,1008.328151488
2022-08-04T03:45:31.959Z,1008.226560124
2022-08-04T03:46:31.968Z,1008.1249687599999
2022-08-04T03:47:31.968Z,1008.1249687599999
2022-08-04T03:48:31.947Z,1008.226560124
2022-08-04T03:49:31.967Z,1008.226560124
2022-08-04T03:50:31.976Z,1008.429742852
2022-08-04T03:51:35.914Z,1008.328151488
2022-08-04T03:52:32.194Z,1008.328151488
2022-08-04T03:53:31.925Z,1008.1249687599999
2022-08-04T03:54:31.980Z,1008.429742852
2022-08-04T03:55:31.977Z,1008.429742852
2022-08-04T03:56:31.963Z,1008.328151488
2022-08-04T03:57:31.963Z,1008.226560124
2022-08-04T03:58:34.182Z,1008.226560124
2022-08-04T03:59:32.003Z,1008.226560124
2022-08-04T04:00:32.007Z,1008.429742852
2022-08-04T04:02:01.371Z,1008.328151488
2022-08-04T04:02:32.108Z,1008.328151488
2022-08-04T04:03:31.969Z,1008.1249687599999
2022-08-04T04:04:32.048Z,1008.328151488
2022-08-04T04:05:32.913Z,1008.226560124
2022-08-04T04:06:31.948Z,1008.328151488
2022-08-04T04:07:35.775Z,1008.328151488
2022-08-04T04:08:31.941Z,1008.531334216
2022-08-04T04:09:50.611Z,1008.531334216
2022-08-04T04:10:32.016Z,1008.429742852
2022-08-04T04:11:31.934Z,1008.226560124
2022-08-04T04:12:31.980Z,1008.531334216
2022-08-04T04:13:31.976Z,1008.429742852
2022-08-04T04:14:31.980Z,1008.429742852
2022-08-04T04:15:31.988Z,1008.429742852
2022-08-04T04:16:31.971Z,1008.531334216
2022-08-04T04:17:32.025Z,1008.226560124
2022-08-04T04:18:31.936Z,1008.531334216
2022-08-04T04:19:31.937Z,1008.429742852
2022-08-04T04:20:31.978Z,1008.328151488
2022-08-04T04:21:31.931Z,1008.531334216
2022-08-04T04:22:35.393Z,1008.531334216
2022-08-04T04:23:31.995Z,1008.531334216
2022-08-04T04:24:32.808Z,1008.429742852
2022-08-04T04:25:31.952Z,1008.531334216
2022-08-04T04:26:31.962Z,1008.531334216
2022-08-04T04:27:31.944Z,1008.328151488
2022-08-04T04:28:45.395Z,1008.531334216
2022-08-04T04:29:31.956Z,1008.429742852
2022-08-04T04:30:31.950Z,1008.226560124
2022-08-04T04:31:31.931Z,1008.429742852
2022-08-04T04:32:31.981Z,1008.429742852
2022-08-04T04:33:31.939Z,1008.429742852
2022-08-04T04:34:32.115Z,1008.63292558
2022-08-04T04:35:31.955Z,1008.328151488
2022-08-04T04:36:31.975Z,1008.63292558
2022-08-04T04:37:31.969Z,1008.63292558
2022-08-04T04:38:31.994Z,1008.63292558
2022-08-04T04:39:32.002Z,1008.531334216
2022-08-04T04:40:31.949Z,1008.63292558
2022-08-04T04:41:31.956Z,1008.63292558
2022-08-04T04:42:32.005Z,1008.63292558
2022-08-04T04:43:50.919Z,1008.836108308
2022-08-04T04:44:32.039Z,1008.63292558
2022-08-04T04:45:31.940Z,1008.734516944
2022-08-04T04:46:31.967Z,1008.531334216
2022-08-04T04:47:43.293Z,1008.836108308
2022-08-04T04:48:32.045Z,1008.836108308
2022-08-04T04:49:31.963Z,1008.734516944
2022-08-04T04:50:36.436Z,1008.63292558
2022-08-04T04:51:31.941Z,1008.63292558
2022-08-04T04:52:31.976Z,1008.734516944
2022-08-04T04:53:32.036Z,1008.531334216
2022-08-04T04:54:33.254Z,1008.63292558
2022-08-04T04:55:32.334Z,1008.734516944
2022-08-04T04:56:32.224Z,1008.63292558
2022-08-04T04:57:54.108Z,1008.531334216
2022-08-04T04:58:32.007Z,1008.531334216
2022-08-04T04:59:31.948Z,1008.531334216
2022-08-04T05:00:31.963Z,1008.63292558
2022-08-04T05:01:31.957Z,1008.531334216
2022-08-04T05:02:32.005Z,1008.63292558
2022-08-04T05:03:33.623Z,1008.63292558
2022-08-04T05:04:32.016Z,1008.63292558
2022-08-04T05:05:31.951Z,1008.734516944
2022-08-04T05:06:31.959Z,1008.63292558
2022-08-04T05:07:31.959Z,1008.734516944
2022-08-04T05:08:43.868Z,1008.63292558
2022-08-04T05:09:31.956Z,1008.836108308
2022-08-04T05:10:31.937Z,1008.937699672
2022-08-04T05:11:31.933Z,1008.734516944
2022-08-04T05:14:32.241Z,1008.734516944
2022-08-04T05:14:36.109Z,1008.734516944
2022-08-04T05:14:40.633Z,1008.836108308
2022-08-04T05:15:32.057Z,1008.836108308
2022-08-04T05:16:31.948Z,1008.734516944
2022-08-04T05:17:31.994Z,1008.63292558
2022-08-04T05:18:31.964Z,1008.734516944
2022-08-04T05:19:31.936Z,1008.734516944
2022-08-04T05:20:31.982Z,1008.937699672
2022-08-04T05:21:31.934Z,1008.937699672
2022-08-04T05:22:31.976Z,1009.0392910360001
2022-08-04T05:23:31.954Z,1008.63292558
2022-08-04T05:24:34.997Z,1009.208609976
2022-08-04T05:25:31.959Z,1008.836108308
2022-08-04T05:26:31.966Z,1009.0392910360001
2022-08-04T05:27:31.956Z,1008.937699672
2022-08-04T05:28:31.990Z,1009.0392910360001
2022-08-04T05:29:32.155Z,1008.836108308
2022-08-04T05:30:31.941Z,1009.0392910360001
2022-08-04T05:31:32.018Z,1008.734516944
2022-08-04T05:32:32.007Z,1009.1070186119999
2022-08-04T05:33:31.980Z,1008.937699672
2022-08-04T05:34:31.974Z,1009.1070186119999
2022-08-04T05:35:50.510Z,1009.0392910360001
2022-08-04T05:36:40.954Z,1009.1070186119999
2022-08-04T05:37:32.087Z,1008.937699672
2022-08-04T05:38:31.927Z,1009.1070186119999
2022-08-04T05:39:34.457Z,1009.1070186119999
2022-08-04T05:40:31.965Z,1008.937699672
2022-08-04T05:41:44.662Z,1009.0392910360001
2022-08-04T05:42:32.090Z,1009.208609976
2022-08-04T05:43:31.958Z,1008.937699672
2022-08-04T05:44:31.953Z,1009.208609976
2022-08-04T05:45:39.287Z,1009.0392910360001
2022-08-04T05:46:31.990Z,1009.1070186119999
2022-08-04T05:47:31.960Z,1009.208609976
2022-08-04T05:48:31.985Z,1009.1070186119999
2022-08-04T05:49:31.906Z,1009.208609976
2022-08-04T05:50:33.660Z,1008.937699672
2022-08-04T05:51:32.146Z,1008.937699672
2022-08-04T05:52:32.018Z,1009.0392910360001
2022-08-04T05:53:31.946Z,1009.0392910360001
2022-08-04T05:54:32.013Z,1009.0392910360001
2022-08-04T05:55:57.090Z,1008.836108308
2022-08-04T05:56:32.015Z,1009.0392910360001
2022-08-04T05:57:31.946Z,1009.1070186119999
2022-08-04T05:58:31.985Z,1009.208609976
2022-08-04T05:59:31.962Z,1009.0392910360001
2022-08-04T06:00:41.160Z,1009.0392910360001
2022-08-04T06:01:32.506Z,1009.1070186119999
2022-08-04T06:02:32.020Z,1008.937699672
2022-08-04T06:03:31.974Z,1009.0392910360001
2022-08-04T06:04:32.012Z,1009.208609976
2022-08-04T06:05:32.447Z,1009.208609976
2022-08-04T06:06:32.030Z,1009.1070186119999
2022-08-04T06:07:31.954Z,1009.1070186119999
2022-08-04T06:08:31.949Z,1009.208609976
2022-08-04T06:09:31.977Z,1009.208609976
2022-08-04T06:10:31.966Z,1009.0392910360001
2022-08-04T06:11:31.942Z,1008.937699672
2022-08-04T06:12:31.995Z,1009.0392910360001
2022-08-04T06:13:47.883Z,1009.208609976
2022-08-04T06:14:32.032Z,1009.1070186119999
2022-08-04T06:15:32.210Z,1009.1070186119999
2022-08-04T06:16:31.977Z,1008.937699672
2022-08-04T06:18:33.174Z,1009.1070186119999
2022-08-04T06:18:34.008Z,1009.0392910360001
2022-08-04T06:19:59.747Z,1009.0392910360001
2022-08-04T06:20:34.781Z,1009.1070186119999
2022-08-04T06:21:31.868Z,1009.0392910360001
2022-08-04T06:22:31.929Z,1008.937699672
2022-08-04T06:23:31.933Z,1009.1070186119999
2022-08-04T06:24:31.970Z,1008.937699672
2022-08-04T06:25:31.893Z,1009.0392910360001
2022-08-04T06:26:31.940Z,1009.0392910360001
2022-08-04T06:27:32.049Z,1009.0392910360001
2022-08-04T06:28:32.048Z,1008.937699672
2022-08-04T06:29:31.856Z,1008.937699672
2022-08-04T06:30:31.942Z,1008.937699672
2022-08-04T06:32:31.344Z,1008.836108308
2022-08-04T06:32:36.453Z,1009.0392910360001
2022-08-04T06:33:31.837Z,1009.0392910360001
2022-08-04T06:34:31.983Z,1008.937699672
2022-08-04T06:35:31.938Z,1008.937699672
2022-08-04T06:36:31.957Z,1009.0392910360001
2022-08-04T06:37:42.502Z,1008.937699672
2022-08-04T06:38:31.937Z,1009.1070186119999
2022-08-04T06:39:32.031Z,1009.0392910360001
2022-08-04T06:40:33.659Z,1009.0392910360001
2022-08-04T06:41:31.890Z,1009.0392910360001
2022-08-04T06:42:32.016Z,1009.1070186119999
2022-08-04T06:43:32.435Z,1009.0392910360001
2022-08-04T06:44:31.966Z,1009.1070186119999
2022-08-04T06:45:31.895Z,1008.937699672
2022-08-04T06:46:31.933Z,1009.0392910360001
2022-08-04T06:47:31.939Z,1009.1070186119999
2022-08-04T06:48:33.543Z,1008.937699672
2022-08-04T06:49:31.846Z,1009.1070186119999
2022-08-04T06:51:27.048Z,1009.1070186119999
2022-08-04T06:51:38.944Z,1009.208609976
2022-08-04T06:52:31.958Z,1009.0392910360001
2022-08-04T06:53:31.823Z,1009.0392910360001
2022-08-04T06:54:31.971Z,1009.208609976
2022-08-04T06:55:31.941Z,1009.1070186119999
2022-08-04T06:56:31.956Z,1009.1070186119999
2022-08-04T06:57:31.895Z,1009.0392910360001
2022-08-04T06:58:31.959Z,1009.1070186119999
2022-08-04T06:59:32.014Z,1009.208609976
2022-08-04T07:00:32.198Z,1009.3102013399999
2022-08-04T07:01:31.899Z,1009.0392910360001
2022-08-04T07:02:31.924Z,1009.3102013399999
2022-08-04T07:03:32.052Z,1009.1070186119999
2022-08-04T07:04:31.958Z,1009.3102013399999
2022-08-04T07:05:31.749Z,1009.208609976
2022-08-04T07:06:32.076Z,1009.3102013399999
2022-08-04T07:07:36.806Z,1009.1070186119999
2022-08-04T07:08:31.954Z,1009.0392910360001
2022-08-04T07:09:31.770Z,1009.3102013399999
2022-08-04T07:10:32.023Z,1009.3102013399999
2022-08-04T07:11:39.513Z,1009.208609976
2022-08-04T07:12:32.039Z,1008.937699672
2022-08-04T07:13:31.839Z,1009.0392910360001
2022-08-04T07:14:31.964Z,1009.3102013399999
2022-08-04T07:15:31.954Z,1009.0392910360001
2022-08-04T07:16:31.986Z,1009.0392910360001
2022-08-04T07:17:34.727Z,1009.1070186119999
2022-08-04T07:18:31.994Z,1009.0392910360001
2022-08-04T07:19:31.924Z,1009.0392910360001
2022-08-04T07:20:34.556Z,1009.0392910360001
2022-08-04T07:21:31.773Z,1008.937699672
2022-08-04T07:22:31.941Z,1009.0392910360001
2022-08-04T07:23:31.991Z,1009.1070186119999
2022-08-04T07:24:31.969Z,1009.0392910360001
2022-08-04T07:26:12.091Z,1008.937699672
2022-08-04T07:26:32.035Z,1008.937699672
2022-08-04T07:27:48.439Z,1008.937699672
2022-08-04T07:28:32.068Z,1009.0392910360001
2022-08-04T07:29:31.781Z,1009.1070186119999
2022-08-04T07:30:32.066Z,1008.836108308
2022-08-04T07:31:34.086Z,1009.1070186119999
2022-08-04T07:32:31.937Z,1009.0392910360001
2022-08-04T07:33:31.788Z,1008.836108308
2022-08-04T07:34:31.935Z,1009.1070186119999
2022-08-04T07:36:10.096Z,1008.937699672
2022-08-04T07:36:38.352Z,1009.3102013399999
2022-08-04T07:37:40.135Z,1008.937699672
2022-08-04T07:38:31.936Z,1008.836108308
2022-08-04T07:39:33.011Z,1009.0392910360001
2022-08-04T07:40:31.897Z,1008.937699672
2022-08-04T07:41:35.887Z,1009.1070186119999
2022-08-04T07:42:31.960Z,1009.0392910360001
2022-08-04T07:43:31.975Z,1008.937699672
2022-08-04T07:44:31.930Z,1008.937699672
2022-08-04T07:45:31.736Z,1009.1070186119999
2022-08-04T07:46:31.946Z,1008.937699672
2022-08-04T07:47:31.958Z,1009.208609976
2022-08-04T07:48:31.990Z,1009.208609976
2022-08-04T07:49:55.446Z,1008.937699672
2022-08-04T07:50:32.017Z,1009.0392910360001
2022-08-04T07:51:31.926Z,1009.1070186119999
2022-08-04T07:52:31.945Z,1008.836108308
2022-08-04T07:53:55.136Z,1009.0392910360001
2022-08-04T07:54:31.987Z,1009.208609976
2022-08-04T07:55:31.958Z,1009.0392910360001
2022-08-04T07:56:32.058Z,1009.0392910360001
2022-08-04T07:57:41.779Z,1009.0392910360001
2022-08-04T07:58:32.031Z,1009.1070186119999
2022-08-04T07:59:31.946Z,1009.0392910360001
2022-08-04T08:00:32.660Z,1008.937699672
2022-08-04T08:01:31.741Z,1009.1070186119999
2022-08-04T08:02:31.990Z,1008.937699672
2022-08-04T08:03:31.992Z,1009.1070186119999
2022-08-04T08:04:31.938Z,1009.1070186119999
2022-08-04T08:05:31.804Z,1009.1070186119999
2022-08-04T08:06:34.722Z,1009.1070186119999
2022-08-04T08:07:31.931Z,1009.1070186119999
2022-08-04T08:08:31.922Z,1009.1070186119999
2022-08-04T08:09:31.692Z,1009.1070186119999
2022-08-04T08:10:31.962Z,1009.208609976
2022-08-04T08:12:35.503Z,1009.1070186119999
2022-08-04T08:12:38.656Z,1009.1070186119999
2022-08-04T08:13:33.253Z,1009.0392910360001
2022-08-04T08:14:32.082Z,1009.1070186119999
2022-08-04T08:15:31.936Z,1009.3102013399999
2022-08-04T08:16:31.969Z,1009.3102013399999
2022-08-04T08:17:31.676Z,1009.208609976
2022-08-04T08:18:31.991Z,1009.1070186119999
2022-08-04T08:19:32.011Z,1009.4117927039999
2022-08-04T08:20:31.982Z,1009.3102013399999
2022-08-04T08:21:31.719Z,1009.3102013399999
2022-08-04T08:22:31.943Z,1009.1070186119999
2022-08-04T08:23:32.146Z,1009.208609976
2022-08-04T08:24:31.942Z,1009.208609976
2022-08-04T08:25:31.773Z,1009.3102013399999
2022-08-04T08:26:32.782Z,1009.208609976
2022-08-04T08:27:32.083Z,1009.4117927039999
2022-08-04T08:28:31.954Z,1009.208609976
2022-08-04T08:29:31.623Z,1009.3102013399999
2022-08-04T08:30:32.855Z,1009.208609976
2022-08-04T08:31:56.184Z,1009.208609976
2022-08-04T08:32:32.028Z,1009.3102013399999
2022-08-04T08:33:31.683Z,1009.208609976
2022-08-04T08:34:31.954Z,1009.1070186119999
2022-08-04T08:35:31.911Z,1009.208609976
2022-08-04T08:36:31.958Z,1009.208609976
2022-08-04T08:37:31.754Z,1009.3102013399999
2022-08-04T08:38:31.934Z,1009.208609976
2022-08-04T08:39:31.983Z,1009.3102013399999
2022-08-04T08:40:40.036Z,1009.208609976
2022-08-04T08:41:31.645Z,1009.1070186119999
2022-08-04T08:42:31.944Z,1009.208609976
2022-08-04T08:44:06.476Z,1009.208609976
2022-08-04T08:44:37.372Z,1009.208609976
2022-08-04T08:45:31.757Z,1009.1070186119999
2022-08-04T08:46:48.422Z,1009.1070186119999
2022-08-04T08:48:05.078Z,1009.208609976
2022-08-04T08:48:32.021Z,1009.1070186119999
2022-08-04T08:50:01.993Z,1009.1070186119999
2022-08-04T08:50:32.058Z,1009.3102013399999
2022-08-04T08:51:31.908Z,1009.4117927039999
2022-08-04T08:52:56.207Z,1009.4117927039999
2022-08-04T08:53:31.706Z,1009.208609976
2022-08-04T08:54:31.926Z,1009.208609976
2022-08-04T08:55:31.961Z,1009.208609976
2022-08-04T08:56:32.033Z,1009.3102013399999
2022-08-04T08:57:31.703Z,1009.3102013399999
2022-08-04T08:58:32.061Z,1009.4117927039999
2022-08-04T08:59:31.945Z,1009.0392910360001
2022-08-04T09:00:32.176Z,1009.4117927039999
2022-08-04T09:01:31.708Z,1009.208609976
2022-08-04T09:02:31.971Z,1009.208609976
2022-08-04T09:03:31.930Z,1009.4117927039999
2022-08-04T09:04:32.503Z,1009.208609976
2022-08-04T09:05:32.268Z,1009.1070186119999
2022-08-04T09:06:31.970Z,1009.208609976
2022-08-04T09:07:31.951Z,1009.1070186119999
2022-08-04T09:08:31.938Z,1009.1070186119999
2022-08-04T09:09:31.645Z,1009.1070186119999
2022-08-04T09:10:33.632Z,1009.4117927039999
2022-08-04T09:11:31.929Z,1009.3102013399999
2022-08-04T09:12:31.978Z,1009.3102013399999
2022-08-04T09:13:31.585Z,1009.3102013399999
2022-08-04T09:14:31.929Z,1009.1070186119999
2022-08-04T09:15:31.975Z,1009.3102013399999
2022-08-04T09:16:31.960Z,1009.3102013399999
2022-08-04T09:17:31.558Z,1009.208609976
2022-08-04T09:18:31.949Z,1009.3102013399999
2022-08-04T09:19:38.305Z,1009.3102013399999
2022-08-04T09:20:31.927Z,1009.3102013399999
2022-08-04T09:21:31.723Z,1009.208609976
2022-08-04T09:22:31.962Z,1009.513384068
2022-08-04T09:23:31.919Z,1009.4117927039999
2022-08-04T09:24:35.504Z,1009.513384068
2022-08-04T09:25:31.573Z,1009.3102013399999
2022-08-04T09:26:31.928Z,1009.208609976
2022-08-04T09:27:31.930Z,1009.4117927039999
2022-08-04T09:28:53.123Z,1009.4117927039999
2022-08-04T09:29:31.701Z,1009.4117927039999
2022-08-04T09:30:31.904Z,1009.208609976
2022-08-04T09:31:48.665Z,1009.208609976
2022-08-04T09:32:32.017Z,1009.3102013399999
2022-08-04T09:33:45.271Z,1009.513384068
2022-08-04T09:34:31.900Z,1009.4117927039999
2022-08-04T09:35:31.904Z,1009.4117927039999
2022-08-04T09:36:31.925Z,1009.3102013399999